Ana Sayfa
METAR-TAF:

METAR-TAF

Havaalanları :

Dumas, Teksas, Amerika Birleşik Devletleri

Enlem: 35-51-28N, Boylam: 102-00-47W, yükseklik: 1129 m

Güncel hava durumu gözlemi

Rapor saat 21:35 UTC de 15 dakika önce yapıldı.
Rüzgar güneydan 9 kt
Sıcaklık 24°C
Nem 36%
Basınç 1014 hPa
Görüş mesafesi: 16.1 km
Açık gökyüzü

METAR: KDUX 242135Z AUTO 19009KT 10SM CLR 24/08 A2993 RMK AO2 T02430079

Saat: 16:50 (21:50 UTC)


TAF: eksik

4.000'den fazla havaalanı için hava durumu gözlemleri ve tahminleri (METAR ve TAF raporları).

Kullanılabilir istasyonlar harita üzerinde sarı ve kırmızı noktalarla gösterilir.

İstasyonun adını görmek için fareyi noktanın üzerinde gezdirin.

Sonrasında hava gözlem ve tahminlerini görmek için tıklayın.

Haritayı değiştirmek için: yaklaştırmak için siyah artı işaretli yeşil düğmeye ve uzaklaştırmak için de eksi işaretli düğmeye hızla tıklayın; bitişik haritalar için yeşil okları kullanın.


METAR-TAF: